createdAt,value
2022-09-12T00:00:08.485Z,415
2022-09-12T00:01:08.096Z,414
2022-09-12T00:03:07.624Z,412
2022-09-12T00:04:07.321Z,416
2022-09-12T00:06:07.465Z,413
2022-09-12T00:07:08.014Z,414
2022-09-12T00:09:07.799Z,415
2022-09-12T00:10:07.415Z,411
2022-09-12T00:11:07.766Z,403
2022-09-12T00:12:07.070Z,404
2022-09-12T00:13:07.402Z,405
2022-09-12T00:14:07.671Z,397
2022-09-12T00:15:07.592Z,400
2022-09-12T00:16:07.852Z,394
2022-09-12T00:17:07.477Z,387
2022-09-12T00:18:07.828Z,382
2022-09-12T00:19:07.449Z,388
2022-09-12T00:21:07.276Z,381
2022-09-12T00:23:07.118Z,380
2022-09-12T00:24:07.678Z,390
2022-09-12T00:25:07.546Z,389
2022-09-12T00:26:07.960Z,382
2022-09-12T00:27:07.149Z,383
2022-09-12T00:28:07.750Z,394
2022-09-12T00:29:07.287Z,390
2022-09-12T00:30:08.202Z,397
2022-09-12T00:32:07.526Z,398
2022-09-12T00:33:07.966Z,400
2022-09-12T00:34:07.240Z,389
2022-09-12T00:35:08.020Z,391
2022-09-12T00:36:07.533Z,402
2022-09-12T00:38:07.369Z,408
2022-09-12T00:39:08.005Z,407
2022-09-12T00:40:07.299Z,404
2022-09-12T00:41:07.637Z,401
2022-09-12T00:43:07.377Z,396
2022-09-12T00:44:07.162Z,401
2022-09-12T00:45:07.849Z,405
2022-09-12T00:46:07.180Z,412
2022-09-12T00:47:07.508Z,404
2022-09-12T00:48:07.889Z,399
2022-09-12T00:49:07.189Z,404
2022-09-12T00:50:07.566Z,408
2022-09-12T00:51:07.861Z,402
2022-09-12T00:52:07.016Z,404
2022-09-12T00:53:07.528Z,412
2022-09-12T00:54:07.850Z,413
2022-09-12T00:56:07.379Z,419
2022-09-12T00:57:07.866Z,413
2022-09-12T00:58:07.394Z,403
2022-09-12T00:59:07.505Z,402
2022-09-12T01:00:08.861Z,407
2022-09-12T01:01:07.824Z,416
2022-09-12T01:02:07.564Z,412
2022-09-12T01:03:07.395Z,397
2022-09-12T01:04:07.619Z,400
2022-09-12T01:05:07.210Z,402
2022-09-12T01:06:07.876Z,418
2022-09-12T01:08:07.685Z,417
2022-09-12T01:09:07.232Z,416
2022-09-12T01:10:07.971Z,412
2022-09-12T01:11:07.324Z,414
2022-09-12T01:12:07.880Z,416
2022-09-12T01:13:07.257Z,417
2022-09-12T01:14:07.636Z,413
2022-09-12T01:16:07.517Z,416
2022-09-12T01:17:07.883Z,412
2022-09-12T01:19:07.989Z,409
2022-09-12T01:21:07.760Z,413
2022-09-12T01:22:07.243Z,412
2022-09-12T01:23:07.391Z,406
2022-09-12T01:24:08.036Z,408
2022-09-12T01:25:07.401Z,405
2022-09-12T01:26:07.087Z,411
2022-09-12T01:27:07.617Z,405
2022-09-12T01:29:07.586Z,412
2022-09-12T01:30:08.342Z,413
2022-09-12T01:31:07.880Z,410
2022-09-12T01:32:07.384Z,400
2022-09-12T01:33:07.909Z,401
2022-09-12T01:34:06.973Z,392
2022-09-12T01:35:07.635Z,393
2022-09-12T01:36:07.966Z,386
2022-09-12T01:37:07.543Z,390
2022-09-12T01:38:07.671Z,381
2022-09-12T01:39:07.151Z,388
2022-09-12T01:40:07.583Z,389
2022-09-12T01:41:07.158Z,398
2022-09-12T01:42:07.581Z,393
2022-09-12T01:43:07.856Z,388
2022-09-12T01:44:07.134Z,391
2022-09-12T01:45:07.988Z,393
2022-09-12T01:46:07.431Z,382
2022-09-12T01:47:07.947Z,378
2022-09-12T01:48:07.393Z,377
2022-09-12T01:49:07.775Z,383
2022-09-12T01:50:07.490Z,381
2022-09-12T01:51:07.960Z,382
2022-09-12T01:52:07.405Z,386
2022-09-12T01:53:07.922Z,384
2022-09-12T01:55:09.693Z,385
2022-09-12T01:56:07.446Z,387
2022-09-12T01:58:07.827Z,386
2022-09-12T01:59:07.178Z,383
2022-09-12T02:00:08.335Z,388
2022-09-12T02:01:07.251Z,387
2022-09-12T02:02:08.022Z,394
2022-09-12T02:04:07.825Z,395
2022-09-12T02:05:07.436Z,389
2022-09-12T02:06:07.919Z,385
2022-09-12T02:08:07.184Z,382
2022-09-12T02:09:07.788Z,379
2022-09-12T02:10:07.109Z,382
2022-09-12T02:11:07.525Z,379
2022-09-12T02:12:07.869Z,382
2022-09-12T02:13:07.341Z,384
2022-09-12T02:14:07.663Z,386
2022-09-12T02:15:07.376Z,388
2022-09-12T02:16:07.760Z,381
2022-09-12T02:17:07.357Z,377
2022-09-12T02:18:07.836Z,375
2022-09-12T02:19:07.485Z,378
2022-09-12T02:21:07.327Z,381
2022-09-12T02:22:07.966Z,382
2022-09-12T02:23:07.491Z,397
2022-09-12T02:25:07.387Z,392
2022-09-12T02:27:07.833Z,391
2022-09-12T02:29:07.688Z,388
2022-09-12T02:30:08.203Z,375
2022-09-12T02:32:07.394Z,386
2022-09-12T02:34:07.467Z,405
2022-09-12T02:35:07.828Z,391
2022-09-12T02:37:07.471Z,380
2022-09-12T02:39:07.506Z,385
2022-09-12T02:40:07.922Z,387
2022-09-12T02:41:07.076Z,381
2022-09-12T02:42:07.638Z,390
2022-09-12T02:43:07.766Z,376
2022-09-12T02:45:07.701Z,383
2022-09-12T02:46:07.180Z,374
2022-09-12T02:47:07.726Z,387
2022-09-12T02:48:07.046Z,392
2022-09-12T02:49:09.437Z,389
2022-09-12T02:50:07.962Z,375
2022-09-12T02:51:07.235Z,381
2022-09-12T02:52:07.929Z,387
2022-09-12T02:53:07.119Z,386
2022-09-12T02:54:07.685Z,375
2022-09-12T02:55:07.265Z,377
2022-09-12T02:56:07.913Z,380
2022-09-12T02:57:07.594Z,379
2022-09-12T02:58:07.863Z,378
2022-09-12T03:01:08.319Z,382
2022-09-12T03:02:08.104Z,367
2022-09-12T03:04:07.711Z,381
2022-09-12T03:05:07.221Z,376
2022-09-12T03:06:07.814Z,381
2022-09-12T03:07:07.282Z,380
2022-09-12T03:08:07.863Z,377
2022-09-12T03:09:07.740Z,368
2022-09-12T03:10:07.476Z,371
2022-09-12T03:11:07.891Z,373
2022-09-12T03:13:08.060Z,371
2022-09-12T03:14:07.404Z,373
2022-09-12T03:15:08.014Z,381
2022-09-12T03:16:07.687Z,378
2022-09-12T03:17:07.320Z,380
2022-09-12T03:19:07.844Z,382
2022-09-12T03:20:07.448Z,387
2022-09-12T03:21:08.161Z,381
2022-09-12T03:23:07.592Z,376
2022-09-12T03:24:08.213Z,387
2022-09-12T03:26:07.796Z,393
2022-09-12T03:27:07.133Z,386
2022-09-12T03:28:07.551Z,387
2022-09-12T03:29:07.199Z,386
2022-09-12T03:30:08.239Z,383
2022-09-12T03:31:07.897Z,384
2022-09-12T03:33:07.773Z,379
2022-09-12T03:34:07.050Z,382
2022-09-12T03:35:07.830Z,374
2022-09-12T03:36:07.169Z,366
2022-09-12T03:37:07.712Z,381
2022-09-12T03:39:07.378Z,384
2022-09-12T03:40:07.964Z,391
2022-09-12T03:41:07.347Z,383
2022-09-12T03:43:07.314Z,387
2022-09-12T03:44:07.698Z,391
2022-09-12T03:46:07.933Z,387
2022-09-12T03:49:07.774Z,384
2022-09-12T03:50:07.315Z,383
2022-09-12T03:51:07.631Z,384
2022-09-12T03:53:07.659Z,393
2022-09-12T03:54:07.353Z,400
2022-09-12T03:55:08.355Z,383
2022-09-12T03:57:07.468Z,388
2022-09-12T03:58:07.181Z,381
2022-09-12T03:59:07.947Z,375
2022-09-12T04:00:07.681Z,382
2022-09-12T04:01:07.694Z,384
2022-09-12T04:03:07.883Z,382
2022-09-12T04:05:08.263Z,388
2022-09-12T04:06:07.913Z,385
2022-09-12T04:07:07.909Z,396
2022-09-12T04:09:07.067Z,375
2022-09-12T04:11:07.583Z,381
2022-09-12T04:12:07.403Z,386
2022-09-12T04:13:07.934Z,385
2022-09-12T04:15:08.360Z,382
2022-09-12T04:17:07.669Z,390
2022-09-12T04:20:07.246Z,388
2022-09-12T04:21:07.993Z,389
2022-09-12T04:22:07.341Z,401
2022-09-12T04:23:07.265Z,397
2022-09-12T04:24:07.923Z,401
2022-09-12T04:25:08.027Z,397
2022-09-12T04:28:07.880Z,398
2022-09-12T04:29:07.565Z,393
2022-09-12T04:31:08.141Z,399
2022-09-12T04:32:07.690Z,390
2022-09-12T04:33:08.143Z,386
2022-09-12T04:34:07.936Z,381
2022-09-12T04:35:07.622Z,388
2022-09-12T04:36:07.422Z,413
2022-09-12T04:38:07.662Z,402
2022-09-12T04:39:07.587Z,399
2022-09-12T04:41:07.038Z,402
2022-09-12T04:42:07.326Z,392
2022-09-12T04:43:12.391Z,390
2022-09-12T04:44:07.024Z,400
2022-09-12T04:45:08.118Z,408
2022-09-12T04:46:07.791Z,415
2022-09-12T04:47:07.458Z,401
2022-09-12T04:48:07.998Z,395
2022-09-12T04:49:07.505Z,410
2022-09-12T04:50:07.328Z,408
2022-09-12T04:51:21.740Z,409
2022-09-12T04:53:07.726Z,407
2022-09-12T04:54:07.146Z,413
2022-09-12T04:57:07.176Z,418
2022-09-12T04:58:07.533Z,429
2022-09-12T04:59:07.714Z,428
2022-09-12T05:00:08.174Z,425
2022-09-12T05:02:07.930Z,429
2022-09-12T05:03:07.588Z,433
2022-09-12T05:04:07.178Z,423
2022-09-12T05:05:08.268Z,427
2022-09-12T05:06:07.803Z,438
2022-09-12T05:08:07.444Z,433
2022-09-12T05:09:08.245Z,434
2022-09-12T05:10:07.943Z,437
2022-09-12T05:11:07.616Z,440
2022-09-12T05:13:07.956Z,449
2022-09-12T05:14:07.465Z,428
2022-09-12T05:15:07.262Z,434
2022-09-12T05:16:07.613Z,435
2022-09-12T05:17:07.360Z,436
2022-09-12T05:18:07.867Z,441
2022-09-12T05:20:07.293Z,447
2022-09-12T05:21:07.677Z,455
2022-09-12T05:22:06.984Z,449
2022-09-12T05:23:07.885Z,448
2022-09-12T05:24:07.311Z,447
2022-09-12T05:25:07.985Z,435
2022-09-12T05:26:07.402Z,434
2022-09-12T05:27:08.035Z,437
2022-09-12T05:29:07.269Z,439
2022-09-12T05:30:08.146Z,438
2022-09-12T05:31:07.885Z,431
2022-09-12T05:32:07.408Z,451
2022-09-12T05:34:07.561Z,439
2022-09-12T05:35:07.404Z,440
2022-09-12T05:38:07.950Z,435
2022-09-12T05:39:07.353Z,431
2022-09-12T05:40:08.378Z,434
2022-09-12T05:42:07.539Z,433
2022-09-12T05:43:08.244Z,427
2022-09-12T05:45:07.749Z,425
2022-09-12T05:46:07.363Z,422
2022-09-12T05:48:07.661Z,437
2022-09-12T05:51:07.900Z,432
2022-09-12T05:52:07.174Z,433
2022-09-12T05:53:07.688Z,427
2022-09-12T05:54:07.133Z,428
2022-09-12T05:55:07.987Z,435
2022-09-12T05:56:07.509Z,440
2022-09-12T05:57:08.086Z,432
2022-09-12T05:58:07.722Z,433
2022-09-12T06:00:08.136Z,422
2022-09-12T06:01:07.195Z,424
2022-09-12T06:02:07.902Z,427
2022-09-12T06:03:07.747Z,433
2022-09-12T06:05:08.284Z,425
2022-09-12T06:06:08.476Z,416
2022-09-12T06:07:08.295Z,423
2022-09-12T06:08:07.195Z,427
2022-09-12T06:09:07.782Z,426
2022-09-12T06:10:08.141Z,420
2022-09-12T06:11:07.874Z,421
2022-09-12T06:13:07.637Z,415
2022-09-12T06:14:07.581Z,416
2022-09-12T06:15:07.863Z,424
2022-09-12T06:16:07.615Z,428
2022-09-12T06:17:07.330Z,416
2022-09-12T06:19:07.929Z,408
2022-09-12T06:21:07.860Z,411
2022-09-12T06:22:07.569Z,410
2022-09-12T06:23:07.358Z,413
2022-09-12T06:24:08.089Z,407
2022-09-12T06:25:08.130Z,415
2022-09-12T06:26:07.745Z,419
2022-09-12T06:27:07.509Z,421
2022-09-12T06:28:07.106Z,407
2022-09-12T06:29:07.809Z,412
2022-09-12T06:30:08.022Z,408
2022-09-12T06:31:07.913Z,406
2022-09-12T06:32:07.984Z,414
2022-09-12T06:33:07.661Z,425
2022-09-12T06:34:07.318Z,410
2022-09-12T06:35:07.990Z,401
2022-09-12T06:36:12.090Z,391
2022-09-12T06:37:07.276Z,387
2022-09-12T06:38:07.963Z,386
2022-09-12T06:39:07.534Z,385
2022-09-12T06:41:08.119Z,392
2022-09-12T06:42:07.852Z,392
2022-09-12T06:43:07.749Z,386
2022-09-12T06:45:08.343Z,382
2022-09-12T06:46:07.737Z,370
2022-09-12T06:47:07.460Z,356
2022-09-12T06:48:07.957Z,361
2022-09-12T06:49:07.448Z,367
2022-09-12T06:50:07.989Z,365
2022-09-12T06:51:07.450Z,369
2022-09-12T06:53:07.442Z,363
2022-09-12T06:54:08.052Z,360
2022-09-12T06:55:07.460Z,370
2022-09-12T06:56:08.052Z,362
2022-09-12T06:57:07.655Z,354
2022-09-12T06:59:07.667Z,363
2022-09-12T07:00:08.006Z,352
2022-09-12T07:01:07.516Z,353
2022-09-12T07:02:07.399Z,365
2022-09-12T07:04:07.774Z,361
2022-09-12T07:05:07.713Z,354
2022-09-12T07:06:07.371Z,351
2022-09-12T07:08:07.409Z,367
2022-09-12T07:09:07.363Z,369
2022-09-12T07:10:08.138Z,360
2022-09-12T07:11:08.244Z,355
2022-09-12T07:13:07.805Z,359
2022-09-12T07:14:07.541Z,376
2022-09-12T07:15:08.172Z,377
2022-09-12T07:16:07.900Z,369
2022-09-12T07:17:07.580Z,359
2022-09-12T07:18:07.435Z,362
2022-09-12T07:19:08.031Z,366
2022-09-12T07:20:07.733Z,358
2022-09-12T07:21:07.407Z,364
2022-09-12T07:22:07.987Z,359
2022-09-12T07:23:07.290Z,347
2022-09-12T07:24:08.005Z,349
2022-09-12T07:25:08.247Z,350
2022-09-12T07:26:08.137Z,367
2022-09-12T07:27:08.170Z,363
2022-09-12T07:28:26.768Z,351
2022-09-12T07:30:07.687Z,352
2022-09-12T07:31:07.841Z,355
2022-09-12T07:32:07.926Z,369
2022-09-12T07:34:26.746Z,371
2022-09-12T07:35:08.083Z,370
2022-09-12T07:36:07.886Z,366
2022-09-12T07:37:07.529Z,363
2022-09-12T07:38:07.435Z,351
2022-09-12T07:39:08.242Z,349
2022-09-12T07:40:08.309Z,380
2022-09-12T07:41:08.455Z,378
2022-09-12T07:43:08.001Z,371
2022-09-12T07:44:07.753Z,378
2022-09-12T07:45:08.046Z,377
2022-09-12T07:46:07.791Z,360
2022-09-12T07:47:07.572Z,373
2022-09-12T07:48:07.451Z,386
2022-09-12T07:49:08.463Z,387
2022-09-12T07:50:07.314Z,388
2022-09-12T07:51:07.990Z,368
2022-09-12T07:52:07.753Z,376
2022-09-12T07:53:07.233Z,379
2022-09-12T07:54:07.888Z,370
2022-09-12T07:57:07.932Z,364
2022-09-12T07:58:07.136Z,369
2022-09-12T07:59:07.476Z,367
2022-09-12T08:00:08.789Z,355
2022-09-12T08:01:07.635Z,360
2022-09-12T08:02:08.061Z,363
2022-09-12T08:03:07.426Z,362
2022-09-12T08:04:07.306Z,368
2022-09-12T08:05:08.064Z,370
2022-09-12T08:06:07.892Z,375
2022-09-12T08:07:07.458Z,368
2022-09-12T08:08:07.858Z,365
2022-09-12T08:09:07.226Z,366
2022-09-12T08:10:07.980Z,351
2022-09-12T08:11:07.609Z,355
2022-09-12T08:13:10.665Z,347
2022-09-12T08:14:07.783Z,357
2022-09-12T08:15:07.650Z,360
2022-09-12T08:16:07.425Z,373
2022-09-12T08:17:07.423Z,374
2022-09-12T08:18:07.966Z,371
2022-09-12T08:20:07.464Z,360
2022-09-12T08:21:07.250Z,376
2022-09-12T08:23:07.300Z,382
2022-09-12T08:25:07.691Z,362
2022-09-12T08:27:07.632Z,360
2022-09-12T08:28:07.088Z,351
2022-09-12T08:30:07.688Z,354
2022-09-12T08:31:07.495Z,360
2022-09-12T08:32:07.554Z,364
2022-09-12T08:33:07.502Z,370
2022-09-12T08:34:08.041Z,374
2022-09-12T08:35:07.640Z,371
2022-09-12T08:36:07.290Z,354
2022-09-12T08:37:07.894Z,355
2022-09-12T08:38:07.618Z,370
2022-09-12T08:40:08.049Z,371
2022-09-12T08:42:07.521Z,368
2022-09-12T08:43:07.940Z,376
2022-09-12T08:44:07.573Z,382
2022-09-12T08:45:07.460Z,371
2022-09-12T08:46:08.213Z,364
2022-09-12T08:47:08.068Z,361
2022-09-12T08:48:07.698Z,356
2022-09-12T08:49:08.154Z,357
2022-09-12T08:50:07.592Z,359
2022-09-12T08:52:08.352Z,369
2022-09-12T08:53:07.821Z,367
2022-09-12T08:54:07.510Z,361
2022-09-12T08:56:07.531Z,368
2022-09-12T08:58:07.324Z,363
2022-09-12T09:00:08.149Z,361
2022-09-12T09:01:08.091Z,353
2022-09-12T09:02:07.976Z,357
2022-09-12T09:03:08.111Z,353
2022-09-12T09:04:07.669Z,368
2022-09-12T09:05:07.365Z,370
2022-09-12T09:06:07.859Z,365
2022-09-12T09:07:07.420Z,362
2022-09-12T09:08:08.059Z,354
2022-09-12T09:09:07.959Z,370
2022-09-12T09:11:07.611Z,362
2022-09-12T09:12:08.179Z,358
2022-09-12T09:13:08.247Z,371
2022-09-12T09:15:07.773Z,370
2022-09-12T09:17:07.848Z,350
2022-09-12T09:19:08.137Z,367
2022-09-12T09:21:07.306Z,372
2022-09-12T09:22:08.453Z,355
2022-09-12T09:24:07.940Z,364
2022-09-12T09:25:07.779Z,369
2022-09-12T09:26:07.753Z,361
2022-09-12T09:27:18.347Z,359
2022-09-12T09:28:07.646Z,362
2022-09-12T09:29:08.414Z,356
2022-09-12T09:30:08.163Z,353
2022-09-12T09:31:08.053Z,354
2022-09-12T09:32:07.819Z,357
2022-09-12T09:33:08.152Z,355
2022-09-12T09:34:07.769Z,360
2022-09-12T09:35:07.338Z,363
2022-09-12T09:36:08.063Z,355
2022-09-12T09:38:07.786Z,357
2022-09-12T09:39:07.615Z,368
2022-09-12T09:40:07.609Z,359
2022-09-12T09:42:08.179Z,345
2022-09-12T09:43:07.507Z,346
2022-09-12T09:46:07.608Z,365
2022-09-12T09:48:08.105Z,352
2022-09-12T09:49:07.716Z,357
2022-09-12T09:50:07.475Z,354
2022-09-12T09:51:07.264Z,344
2022-09-12T09:53:07.363Z,349
2022-09-12T09:54:08.059Z,350
2022-09-12T09:56:07.275Z,357
2022-09-12T09:57:08.001Z,354
2022-09-12T09:58:07.705Z,356
2022-09-12T09:59:07.263Z,355
2022-09-12T10:01:07.879Z,361
2022-09-12T10:03:11.304Z,361
2022-09-12T10:05:07.919Z,347
2022-09-12T10:07:29.416Z,346
2022-09-12T10:08:08.795Z,350
2022-09-12T10:09:07.337Z,351
2022-09-12T10:10:08.171Z,357
2022-09-12T10:11:07.985Z,352
2022-09-12T10:12:07.587Z,349
2022-09-12T10:16:07.219Z,354
2022-09-12T10:17:07.884Z,356
2022-09-12T10:19:07.312Z,353
2022-09-12T10:21:07.473Z,348
2022-09-12T10:22:08.081Z,345
2022-09-12T10:23:07.748Z,355
2022-09-12T10:24:07.214Z,345
2022-09-12T10:25:08.102Z,350
2022-09-12T10:26:07.856Z,355
2022-09-12T10:27:07.732Z,348
2022-09-12T10:28:07.285Z,338
2022-09-12T10:29:08.209Z,334
2022-09-12T10:30:08.321Z,329
2022-09-12T10:31:08.106Z,330
2022-09-12T10:32:07.748Z,327
2022-09-12T10:33:07.555Z,331
2022-09-12T10:35:07.408Z,336
2022-09-12T10:36:08.230Z,341
2022-09-12T10:37:08.090Z,341
2022-09-12T10:39:07.679Z,334
2022-09-12T10:40:07.600Z,336
2022-09-12T10:41:07.627Z,339
2022-09-12T10:42:07.504Z,342
2022-09-12T10:43:07.961Z,347
2022-09-12T10:44:07.646Z,341
2022-09-12T10:45:07.659Z,329
2022-09-12T10:46:07.200Z,323
2022-09-12T10:47:07.788Z,330
2022-09-12T10:48:07.873Z,337
2022-09-12T10:49:07.738Z,334
2022-09-12T10:51:07.620Z,339
2022-09-12T10:53:07.832Z,332
2022-09-12T10:54:07.441Z,340
2022-09-12T10:55:08.134Z,334
2022-09-12T10:56:07.664Z,322
2022-09-12T10:57:07.639Z,320
2022-09-12T10:58:07.275Z,335
2022-09-12T11:00:07.808Z,328
2022-09-12T11:01:07.796Z,333
2022-09-12T11:02:07.706Z,349
2022-09-12T11:04:07.219Z,345
2022-09-12T11:05:08.096Z,340
2022-09-12T11:06:07.839Z,343
2022-09-12T11:07:07.645Z,346
2022-09-12T11:09:07.801Z,334
2022-09-12T11:11:08.002Z,328
2022-09-12T11:12:07.639Z,339
2022-09-12T11:13:07.515Z,332
2022-09-12T11:15:08.264Z,330
2022-09-12T11:16:07.929Z,321
2022-09-12T11:17:11.690Z,318
2022-09-12T11:18:07.055Z,315
2022-09-12T11:19:07.776Z,322
2022-09-12T11:21:07.343Z,324
2022-09-12T11:22:07.726Z,328
2022-09-12T11:23:07.541Z,337
2022-09-12T11:24:07.311Z,341
2022-09-12T11:26:07.356Z,344
2022-09-12T11:27:08.075Z,348
2022-09-12T11:28:07.331Z,328
2022-09-12T11:29:07.806Z,331
2022-09-12T11:30:07.810Z,319
2022-09-12T11:31:07.459Z,328
2022-09-12T11:32:07.980Z,336
2022-09-12T11:33:07.877Z,344
2022-09-12T11:34:07.576Z,353
2022-09-12T11:35:08.054Z,336
2022-09-12T11:37:10.587Z,340
2022-09-12T11:38:07.373Z,340
2022-09-12T11:40:07.869Z,336
2022-09-12T11:42:07.736Z,332
2022-09-12T11:45:07.302Z,328
2022-09-12T11:46:07.903Z,335
2022-09-12T11:47:07.694Z,344
2022-09-12T11:48:07.335Z,346
2022-09-12T11:49:07.937Z,336
2022-09-12T11:50:07.874Z,325
2022-09-12T11:52:07.707Z,336
2022-09-12T11:54:07.679Z,331
2022-09-12T11:56:08.087Z,319
2022-09-12T11:58:07.130Z,334
2022-09-12T12:00:07.917Z,336
2022-09-12T12:01:08.085Z,335
2022-09-12T12:02:08.398Z,332
2022-09-12T12:04:07.752Z,339
2022-09-12T12:05:07.662Z,345
2022-09-12T12:06:07.574Z,337
2022-09-12T12:07:08.016Z,341
2022-09-12T12:08:07.586Z,343
2022-09-12T12:09:08.012Z,345
2022-09-12T12:10:08.129Z,335
2022-09-12T12:11:07.560Z,337
2022-09-12T12:13:11.979Z,344
2022-09-12T12:14:07.741Z,334
2022-09-12T12:15:07.685Z,326
2022-09-12T12:16:07.443Z,328
2022-09-12T12:17:07.938Z,334
2022-09-12T12:19:10.600Z,335
2022-09-12T12:20:08.614Z,335
2022-09-12T12:22:07.689Z,338
2022-09-12T12:23:07.291Z,347
2022-09-12T12:24:07.769Z,345
2022-09-12T12:25:07.343Z,347
2022-09-12T12:26:07.959Z,344
2022-09-12T12:27:07.546Z,332
2022-09-12T12:28:07.275Z,333
2022-09-12T12:29:08.072Z,347
2022-09-12T12:30:07.868Z,342
2022-09-12T12:31:08.123Z,350
2022-09-12T12:33:07.999Z,347
2022-09-12T12:35:07.890Z,346
2022-09-12T12:36:29.558Z,345
2022-09-12T12:37:07.484Z,352
2022-09-12T12:38:08.285Z,359
2022-09-12T12:39:07.667Z,340
2022-09-12T12:40:07.369Z,344
2022-09-12T12:41:07.483Z,342
2022-09-12T12:42:07.873Z,357
2022-09-12T12:44:07.530Z,345
2022-09-12T12:45:08.480Z,351
2022-09-12T12:48:08.230Z,347
2022-09-12T12:49:07.771Z,346
2022-09-12T12:50:07.634Z,342
2022-09-12T12:52:07.240Z,344
2022-09-12T12:53:08.075Z,348
2022-09-12T12:54:11.085Z,345
2022-09-12T12:57:07.928Z,347
2022-09-12T12:58:07.514Z,361
2022-09-12T12:59:08.046Z,363
2022-09-12T13:01:07.736Z,369
2022-09-12T13:02:07.810Z,357
2022-09-12T13:03:07.689Z,345
2022-09-12T13:04:07.261Z,346
2022-09-12T13:05:07.410Z,336
2022-09-12T13:06:07.999Z,339
2022-09-12T13:07:08.455Z,333
2022-09-12T13:08:07.602Z,351
2022-09-12T13:10:07.623Z,349
2022-09-12T13:12:08.111Z,348
2022-09-12T13:13:07.288Z,339
2022-09-12T13:14:07.900Z,344
2022-09-12T13:15:08.292Z,353
2022-09-12T13:17:08.042Z,340
2022-09-12T13:18:07.570Z,345
2022-09-12T13:19:07.173Z,349
2022-09-12T13:20:26.850Z,359
2022-09-12T13:21:07.335Z,348
2022-09-12T13:23:07.451Z,347
2022-09-12T13:24:07.888Z,358
2022-09-12T13:25:07.676Z,352
2022-09-12T13:26:07.131Z,348
2022-09-12T13:27:07.687Z,349
2022-09-12T13:28:07.123Z,346
2022-09-12T13:29:07.356Z,336
2022-09-12T13:30:07.938Z,341
2022-09-12T13:31:07.438Z,350
2022-09-12T13:33:07.726Z,359
2022-09-12T13:34:07.922Z,366
2022-09-12T13:35:07.364Z,347
2022-09-12T13:36:08.109Z,357
2022-09-12T13:37:07.675Z,346
2022-09-12T13:38:07.670Z,344
2022-09-12T13:39:07.745Z,345
2022-09-12T13:40:07.496Z,337
2022-09-12T13:42:07.751Z,339
2022-09-12T13:43:07.313Z,346
2022-09-12T13:45:07.584Z,355
2022-09-12T13:46:07.369Z,357
2022-09-12T13:47:07.389Z,339
2022-09-12T13:48:07.160Z,319
2022-09-12T13:49:07.677Z,326
2022-09-12T13:51:07.673Z,339
2022-09-12T13:53:07.777Z,352
2022-09-12T13:54:07.052Z,346
2022-09-12T13:55:07.613Z,341
2022-09-12T13:56:07.272Z,355
2022-09-12T13:58:07.460Z,350
2022-09-12T13:59:08.128Z,354
2022-09-12T14:00:08.189Z,341
2022-09-12T14:01:07.183Z,326
2022-09-12T14:02:07.439Z,332
2022-09-12T14:03:07.117Z,337
2022-09-12T14:04:07.654Z,343
2022-09-12T14:05:07.647Z,346
2022-09-12T14:06:07.304Z,334
2022-09-12T14:07:07.938Z,332
2022-09-12T14:08:07.587Z,346
2022-09-12T14:10:07.393Z,349
2022-09-12T14:11:07.683Z,354
2022-09-12T14:12:08.102Z,356
2022-09-12T14:14:07.611Z,341
2022-09-12T14:15:12.624Z,328
2022-09-12T14:16:07.552Z,327
2022-09-12T14:17:16.126Z,325
2022-09-12T14:18:08.151Z,329
2022-09-12T14:19:12.517Z,326
2022-09-12T14:20:07.536Z,322
2022-09-12T14:21:08.508Z,331
2022-09-12T14:23:07.851Z,338
2022-09-12T14:24:07.370Z,339
2022-09-12T14:25:08.335Z,335
2022-09-12T14:26:07.951Z,339
2022-09-12T14:27:07.511Z,332
2022-09-12T14:28:08.020Z,333
2022-09-12T14:30:08.527Z,328
2022-09-12T14:32:07.345Z,335
2022-09-12T14:33:08.050Z,331
2022-09-12T14:34:07.910Z,320
2022-09-12T14:35:07.451Z,322
2022-09-12T14:36:07.944Z,341
2022-09-12T14:37:07.283Z,330
2022-09-12T14:38:07.598Z,339
2022-09-12T14:40:07.897Z,343
2022-09-12T14:41:21.573Z,353
2022-09-12T14:42:07.363Z,346
2022-09-12T14:43:07.832Z,347
2022-09-12T14:44:07.236Z,346
2022-09-12T14:45:08.246Z,338
2022-09-12T14:46:07.640Z,341
2022-09-12T14:47:07.210Z,338
2022-09-12T14:48:07.563Z,324
2022-09-12T14:49:07.694Z,333
2022-09-12T14:50:10.681Z,339
2022-09-12T14:51:08.015Z,360
2022-09-12T14:53:07.681Z,347
2022-09-12T14:54:08.420Z,340
2022-09-12T14:55:08.124Z,344
2022-09-12T14:56:07.620Z,339
2022-09-12T14:58:07.407Z,340
2022-09-12T14:59:08.077Z,338
2022-09-12T15:00:08.240Z,345
2022-09-12T15:01:08.288Z,344
2022-09-12T15:03:07.651Z,346
2022-09-12T15:04:07.296Z,345
2022-09-12T15:06:08.175Z,342
2022-09-12T15:08:07.313Z,340
2022-09-12T15:09:08.256Z,348
2022-09-12T15:10:07.658Z,338
2022-09-12T15:11:07.249Z,341
2022-09-12T15:13:08.102Z,344
2022-09-12T15:15:08.131Z,341
2022-09-12T15:16:08.145Z,349
2022-09-12T15:18:07.272Z,341
2022-09-12T15:19:07.667Z,340
2022-09-12T15:20:07.176Z,348
2022-09-12T15:23:07.904Z,353
2022-09-12T15:24:07.799Z,350
2022-09-12T15:26:07.913Z,346
2022-09-12T15:27:07.670Z,332
2022-09-12T15:28:07.246Z,351
2022-09-12T15:29:08.189Z,341
2022-09-12T15:30:07.982Z,325
2022-09-12T15:31:07.889Z,338
2022-09-12T15:33:07.970Z,351
2022-09-12T15:34:07.473Z,353
2022-09-12T15:35:08.272Z,351
2022-09-12T15:36:08.155Z,345
2022-09-12T15:37:07.864Z,353
2022-09-12T15:38:07.936Z,346
2022-09-12T15:39:07.548Z,358
2022-09-12T15:40:08.068Z,362
2022-09-12T15:41:07.899Z,361
2022-09-12T15:42:07.332Z,355
2022-09-12T15:43:07.664Z,347
2022-09-12T15:44:07.190Z,343
2022-09-12T15:45:07.940Z,356
2022-09-12T15:46:07.468Z,332
2022-09-12T15:47:08.133Z,328
2022-09-12T15:48:07.777Z,329
2022-09-12T15:49:07.293Z,334
2022-09-12T15:50:07.804Z,342
2022-09-12T15:51:07.233Z,340
2022-09-12T15:52:07.567Z,339
2022-09-12T15:53:08.265Z,337
2022-09-12T15:56:07.582Z,332
2022-09-12T15:57:07.207Z,344
2022-09-12T15:58:07.640Z,341
2022-09-12T15:59:07.974Z,345
2022-09-12T16:00:07.959Z,349
2022-09-12T16:01:07.868Z,347
2022-09-12T16:02:07.360Z,341
2022-09-12T16:04:07.776Z,336
2022-09-12T16:05:07.552Z,343
2022-09-12T16:06:08.192Z,342
2022-09-12T16:07:07.704Z,341
2022-09-12T16:08:07.282Z,345
2022-09-12T16:09:08.049Z,348
2022-09-12T16:10:08.019Z,337
2022-09-12T16:11:07.513Z,346
2022-09-12T16:12:08.246Z,350
2022-09-12T16:13:07.923Z,348
2022-09-12T16:14:07.613Z,329
2022-09-12T16:16:07.173Z,336
2022-09-12T16:17:08.150Z,347
2022-09-12T16:18:08.227Z,345
2022-09-12T16:19:07.666Z,342
2022-09-12T16:20:07.392Z,331
2022-09-12T16:21:11.454Z,334
2022-09-12T16:22:07.676Z,326
2022-09-12T16:24:08.115Z,325
2022-09-12T16:25:07.806Z,334
2022-09-12T16:26:07.816Z,327
2022-09-12T16:28:07.685Z,331
2022-09-12T16:29:07.792Z,333
2022-09-12T16:31:07.575Z,329
2022-09-12T16:32:07.149Z,322
2022-09-12T16:33:07.780Z,341
2022-09-12T16:34:07.506Z,327
2022-09-12T16:35:08.156Z,347
2022-09-12T16:37:07.999Z,340
2022-09-12T16:39:08.024Z,343
2022-09-12T16:41:07.334Z,341
2022-09-12T16:43:07.703Z,340
2022-09-12T16:44:07.325Z,347
2022-09-12T16:45:07.911Z,354
2022-09-12T16:46:07.604Z,343
2022-09-12T16:48:07.928Z,335
2022-09-12T16:50:07.876Z,345
2022-09-12T16:52:08.161Z,336
2022-09-12T16:54:15.828Z,338
2022-09-12T16:55:07.798Z,319
2022-09-12T16:56:07.348Z,332
2022-09-12T16:58:07.325Z,339
2022-09-12T16:59:07.548Z,346
2022-09-12T17:00:08.243Z,338
2022-09-12T17:01:07.263Z,332
2022-09-12T17:02:07.965Z,326
2022-09-12T17:04:08.257Z,335
2022-09-12T17:05:07.833Z,337
2022-09-12T17:06:07.248Z,346
2022-09-12T17:08:08.036Z,325